Time;durP1;ratioP1;P1;durP2;ratioP2;P2;SDS_P1;SDS_P2;PMS_P1;PMS_P2;Temp;Humidity;BMP_temperature;BMP_pressure;BME280_temperature;BME280_humidity;BME280_pressure;Samples;Min_cycle;Max_cycle;Signal;HPM_P1;HPM_P2
2023/01/12 00:00:05;;;;;;;4.23;3.07;;;8.80;99.90;;;;;;10481864;28;20244;-81
2023/01/12 00:05:15;;;;;;;5.27;2.90;;;8.70;99.90;;;;;;10474104;28;20242;-81
2023/01/12 00:10:18;;;;;;;4.10;3.00;;;8.70;99.90;;;;;;10489882;28;20231;-81
2023/01/12 00:16:33;;;;;;;7.70;3.60;;;8.70;99.90;;;;;;10462685;28;20220;-82
2023/01/12 00:20:48;;;;;;;5.57;2.87;;;8.60;99.90;;;;;;10468608;28;20221;-82
2023/01/12 00:25:51;;;;;;;7.20;2.90;;;8.70;99.90;;;;;;10462461;28;20253;-81
2023/01/12 00:30:53;;;;;;;25.20;11.60;;;8.70;99.90;;;;;;10461495;28;20571;-80
2023/01/12 00:36:08;;;;;;;9.17;4.50;;;8.70;99.90;;;;;;10460941;28;20257;-82
2023/01/12 00:46:35;;;;;;;7.50;2.83;;;8.80;99.90;;;;;;10466166;28;20280;-81
2023/01/12 00:51:39;;;;;;;3.70;2.60;;;8.90;99.90;;;;;;10462065;28;20202;-81
2023/01/12 00:56:41;;;;;;;3.73;2.73;;;8.90;99.90;;;;;;10460127;28;20635;-82
2023/01/12 01:01:43;;;;;;;2.73;2.33;;;9.00;99.90;;;;;;10471398;28;20289;-82
2023/01/12 01:12:46;;;;;;;4.33;2.57;;;9.30;99.90;;;;;;10491661;28;20205;-81
2023/01/12 01:18:00;;;;;;;3.93;2.83;;;9.30;99.90;;;;;;10494342;28;20248;-81
2023/01/12 01:23:03;;;;;;;5.97;2.97;;;9.30;99.90;;;;;;10472418;28;20311;-82
2023/01/12 01:28:44;;;;;;;5.32;3.08;;;9.30;99.90;;;;;;10471588;28;20280;-81
2023/01/12 01:34:05;;;;;;;3.13;2.63;;;9.40;99.90;;;;;;10481689;28;20577;-81
2023/01/12 01:39:11;;;;;;;3.47;3.17;;;9.40;99.90;;;;;;10468253;28;20196;-80
2023/01/12 01:49:46;;;;;;;2.97;2.47;;;9.30;99.90;;;;;;10363660;28;20206;-84
2023/01/12 01:54:55;;;;;;;6.57;3.23;;;9.20;99.90;;;;;;10371577;28;20203;-84
2023/01/12 01:59:58;;;;;;;2.53;2.30;;;9.40;99.90;;;;;;10408454;28;20210;-84
2023/01/12 02:05:00;;;;;;;6.43;3.47;;;9.50;99.90;;;;;;10402908;28;20230;-84
2023/01/12 02:10:04;;;;;;;3.50;2.53;;;9.50;99.90;;;;;;10397950;28;20205;-85
2023/01/12 02:20:48;;;;;;;6.00;3.30;;;9.50;99.90;;;;;;10399507;28;20233;-84
2023/01/12 02:26:35;;;;;;;4.63;2.67;;;9.50;99.90;;;;;;10398881;28;20229;-84
2023/01/12 02:31:51;;;;;;;9.80;4.10;;;9.50;99.90;;;;;;10396810;28;20240;-84
2023/01/12 02:37:04;;;;;;;6.40;3.30;;;9.50;99.90;;;;;;10397688;28;20222;-84
2023/01/12 02:47:44;;;;;;;5.80;3.03;;;9.50;99.90;;;;;;10402359;28;20721;-84
2023/01/12 02:52:50;;;;;;;5.23;3.20;;;9.60;99.90;;;;;;10393217;28;20689;-83
2023/01/12 02:57:54;;;;;;;3.93;3.10;;;9.50;99.90;;;;;;10404072;28;20230;-84
2023/01/12 03:02:58;;;;;;;5.83;3.30;;;9.50;99.90;;;;;;10427214;28;20452;-83
2023/01/12 03:08:03;;;;;;;6.90;3.63;;;9.50;99.90;;;;;;10413710;28;20856;-84
2023/01/12 03:13:09;;;;;;;5.90;3.20;;;9.40;99.90;;;;;;10415067;28;20200;-84
2023/01/12 03:18:16;;;;;;;7.40;3.47;;;9.40;99.90;;;;;;10417525;28;20229;-85
2023/01/12 03:23:22;;;;;;;8.37;3.60;;;9.30;99.90;;;;;;10426437;28;20353;-85
2023/01/12 03:28:32;;;;;;;6.23;3.27;;;9.40;99.90;;;;;;10405604;28;20225;-84
2023/01/12 03:33:35;;;;;;;5.10;2.90;;;9.30;99.90;;;;;;10403431;28;21503;-84
2023/01/12 03:38:45;;;;;;;9.67;3.50;;;9.30;99.90;;;;;;10417035;28;20236;-85
2023/01/12 03:43:51;;;;;;;6.83;3.07;;;9.30;99.90;;;;;;10401636;28;20226;-84
2023/01/12 03:49:00;;;;;;;5.43;3.30;;;9.20;99.90;;;;;;10411865;28;20717;-84
2023/01/12 03:54:06;;;;;;;8.10;3.35;;;9.30;99.90;;;;;;10400959;28;20208;-83
2023/01/12 03:59:09;;;;;;;7.00;3.70;;;9.40;99.90;;;;;;10400224;28;20221;-84
2023/01/12 04:04:13;;;;;;;10.80;3.80;;;9.50;99.90;;;;;;10399259;28;20229;-84
2023/01/12 04:09:15;;;;;;;6.50;3.40;;;9.60;99.90;;;;;;10399586;28;20225;-84
2023/01/12 04:14:17;;;;;;;5.73;3.10;;;9.40;99.90;;;;;;10413706;28;20283;-84
2023/01/12 04:19:20;;;;;;;24.37;9.13;;;9.40;99.90;;;;;;10398577;28;20222;-83
2023/01/12 04:24:22;;;;;;;15.97;5.37;;;9.40;99.90;;;;;;10400930;28;20217;-84
2023/01/12 04:29:24;;;;;;;10.53;4.40;;;9.40;99.90;;;;;;10402822;28;20309;-84
2023/01/12 04:34:28;;;;;;;7.23;3.27;;;9.40;99.90;;;;;;10398266;28;20194;-84
2023/01/12 04:39:30;;;;;;;6.40;3.00;;;9.50;99.90;;;;;;10418894;28;20222;-84
2023/01/12 04:44:33;;;;;;;7.73;4.00;;;9.50;99.90;;;;;;10387932;28;20725;-84
2023/01/12 04:49:37;;;;;;;7.18;3.38;;;9.60;99.90;;;;;;10410600;28;20213;-84
2023/01/12 04:54:39;;;;;;;10.73;3.80;;;9.70;99.90;;;;;;10409848;28;20270;-84
2023/01/12 04:59:41;;;;;;;6.80;3.70;;;9.80;99.90;;;;;;10402173;28;20202;-84
2023/01/12 05:04:48;;;;;;;8.07;3.13;;;9.70;99.90;;;;;;10414446;28;20217;-84
2023/01/12 05:15:10;;;;;;;6.77;3.30;;;9.70;99.90;;;;;;10393694;28;20217;-84
2023/01/12 05:20:14;;;;;;;8.17;3.47;;;9.90;99.90;;;;;;10399774;28;20288;-84
2023/01/12 05:25:16;;;;;;;6.80;3.30;;;9.80;99.90;;;;;;10402488;28;20949;-84
2023/01/12 05:30:19;;;;;;;9.70;4.23;;;9.70;99.90;;;;;;10404504;28;21194;-84
2023/01/12 05:35:22;;;;;;;8.00;3.40;;;9.70;99.90;;;;;;10401739;28;20230;-84
2023/01/12 05:40:26;;;;;;;6.67;3.67;;;9.70;99.90;;;;;;10416927;28;20217;-83
2023/01/12 05:45:28;;;;;;;7.70;4.07;;;9.80;99.90;;;;;;10404333;28;20258;-83
2023/01/12 05:50:31;;;;;;;7.17;3.50;;;9.80;99.90;;;;;;10419855;28;20264;-83
2023/01/12 05:55:45;;;;;;;8.47;3.33;;;9.70;99.90;;;;;;10423257;28;20261;-83
2023/01/12 06:00:47;;;;;;;6.90;3.63;;;9.80;99.90;;;;;;10401374;28;20221;-83
2023/01/12 06:05:54;;;;;;;9.93;3.73;;;9.80;99.90;;;;;;10418279;28;20340;-84
2023/01/12 06:11:00;;;;;;;6.90;3.20;;;10.00;99.90;;;;;;10403585;28;20449;-83
2023/01/12 06:16:04;;;;;;;5.88;3.67;;;10.00;99.90;;;;;;10406906;28;20664;-85
2023/01/12 06:21:10;;;;;;;6.63;3.47;;;10.10;99.90;;;;;;10417995;28;20213;-85
2023/01/12 06:26:12;;;;;;;6.68;2.67;;;10.10;99.90;;;;;;10412301;28;20512;-85
2023/01/12 06:31:14;;;;;;;7.40;3.20;;;10.10;99.90;;;;;;10414329;28;20220;-83
2023/01/12 06:36:18;;;;;;;6.67;3.50;;;10.10;99.90;;;;;;10405028;28;20221;-86
2023/01/12 06:46:39;;;;;;;17.60;3.43;;;9.90;99.90;;;;;;10402161;28;20590;-83
2023/01/12 06:51:43;;;;;;;7.70;3.87;;;9.90;99.90;;;;;;10407436;28;20627;-84
2023/01/12 06:56:45;;;;;;;11.43;4.13;;;9.80;99.90;;;;;;10408326;28;20713;-84
2023/01/12 07:01:47;;;;;;;7.77;3.57;;;9.80;99.90;;;;;;10388057;28;20320;-84
2023/01/12 07:06:54;;;;;;;12.33;3.80;;;9.90;99.90;;;;;;10406905;28;20525;-84
2023/01/12 07:11:56;;;;;;;8.37;3.27;;;10.00;99.90;;;;;;10405779;28;20233;-84
2023/01/12 07:16:58;;;;;;;6.60;3.50;;;10.10;99.90;;;;;;10404376;28;20320;-84
2023/01/12 07:22:01;;;;;;;7.83;3.23;;;10.00;99.90;;;;;;10407129;28;20210;-83
2023/01/12 07:27:04;;;;;;;5.43;3.07;;;10.00;99.90;;;;;;10382683;28;20447;-83
2023/01/12 07:32:06;;;;;;;9.57;3.70;;;10.00;99.90;;;;;;10405033;28;20202;-86
2023/01/12 07:37:09;;;;;;;7.43;3.00;;;10.00;99.90;;;;;;10406556;28;20254;-84
2023/01/12 07:42:23;;;;;;;4.47;3.10;;;10.00;99.90;;;;;;10410198;28;20690;-84
2023/01/12 07:47:27;;;;;;;7.77;3.47;;;10.00;99.90;;;;;;10463303;22;20239;-81
2023/01/12 07:52:30;;;;;;;7.00;3.33;;;10.10;99.90;;;;;;10476926;28;20702;-83
2023/01/12 07:57:32;;;;;;;5.83;2.37;;;10.10;99.90;;;;;;10513455;28;20307;-83
2023/01/12 08:02:35;;;;;;;5.53;2.70;;;10.20;99.90;;;;;;10512231;28;20227;-83
2023/01/12 08:07:38;;;;;;;4.00;2.67;;;10.20;99.90;;;;;;10497478;28;20247;-83
2023/01/12 08:12:41;;;;;;;2.13;1.93;;;10.30;99.90;;;;;;10481932;28;20204;-83
2023/01/12 08:17:48;;;;;;;4.57;2.70;;;10.20;99.90;;;;;;10471016;28;20255;-83
2023/01/12 08:22:55;;;;;;;4.47;2.60;;;10.30;99.90;;;;;;10508680;28;20305;-82
2023/01/12 08:28:01;;;;;;;4.97;2.97;;;10.30;99.90;;;;;;10503057;28;20228;-83
2023/01/12 08:33:04;;;;;;;4.50;2.37;;;10.50;99.90;;;;;;10470229;28;20224;-83
2023/01/12 08:38:10;;;;;;;7.73;2.83;;;10.70;99.80;;;;;;10487091;28;20644;-82
2023/01/12 08:43:12;;;;;;;4.43;2.20;;;10.60;99.90;;;;;;10470127;28;20755;-82
2023/01/12 08:48:16;;;;;;;5.60;2.75;;;10.50;99.90;;;;;;10500825;28;20228;-82
2023/01/12 08:53:20;;;;;;;5.27;2.60;;;10.60;99.90;;;;;;10480146;28;20200;-81
2023/01/12 08:58:22;;;;;;;4.97;3.00;;;10.70;99.90;;;;;;10492251;28;20224;-81
2023/01/12 09:03:24;;;;;;;4.03;2.10;;;10.70;99.90;;;;;;10483204;28;20259;-81
2023/01/12 09:08:28;;;;;;;3.22;1.88;;;10.70;99.90;;;;;;10478493;28;20228;-82
2023/01/12 09:13:32;;;;;;;6.50;4.77;;;10.80;99.90;;;;;;10502703;28;20193;-81
2023/01/12 09:18:34;;;;;;;3.97;2.03;;;10.80;99.90;;;;;;10482771;28;20255;-81
2023/01/12 09:23:38;;;;;;;7.50;3.35;;;10.90;99.90;;;;;;10480533;28;20231;-83
2023/01/12 09:28:41;;;;;;;4.37;2.83;;;11.00;99.80;;;;;;10494155;28;20252;-82
2023/01/12 09:33:44;;;;;;;6.13;3.60;;;10.90;99.90;;;;;;10466021;28;20211;-81
2023/01/12 09:38:48;;;;;;;10.43;4.85;;;10.90;99.90;;;;;;10484757;28;20221;-81
2023/01/12 09:49:11;;;;;;;4.97;2.40;;;11.00;99.90;;;;;;10478541;28;20226;-81
2023/01/12 09:54:14;;;;;;;5.33;2.77;;;11.00;99.90;;;;;;10497461;28;20213;-83
2023/01/12 09:59:34;;;;;;;5.20;2.40;;;11.00;99.90;;;;;;10498950;28;20219;-82
2023/01/12 10:04:39;;;;;;;4.47;2.40;;;11.00;99.90;;;;;;10496101;28;20229;-81
2023/01/12 10:09:43;;;;;;;5.70;2.43;;;11.10;99.90;;;;;;10497651;28;20223;-81
2023/01/12 10:15:02;;;;;;;7.40;3.23;;;11.10;99.90;;;;;;10464505;28;20200;-82
2023/01/12 10:20:14;;;;;;;6.30;2.60;;;11.20;99.90;;;;;;10479986;28;20200;-82
2023/01/12 10:25:25;;;;;;;5.03;3.07;;;11.20;99.90;;;;;;10487113;28;20223;-81
2023/01/12 10:30:31;;;;;;;5.57;2.70;;;11.40;99.90;;;;;;10478732;28;20992;-81
2023/01/12 10:35:33;;;;;;;4.47;2.70;;;11.50;99.90;;;;;;10480333;28;20220;-82
2023/01/12 10:40:36;;;;;;;4.07;2.50;;;11.40;99.90;;;;;;10477103;28;20268;-82
2023/01/12 10:45:41;;;;;;;6.80;3.00;;;11.40;99.90;;;;;;10478512;28;20315;-81
2023/01/12 10:50:50;;;;;;;3.50;3.20;;;11.40;99.90;;;;;;10499896;28;20255;-81
2023/01/12 10:55:55;;;;;;;4.10;2.67;;;11.70;99.90;;;;;;10493347;28;20354;-83
2023/01/12 11:00:58;;;;;;;7.03;2.60;;;11.80;99.60;;;;;;10478867;28;20296;-81
2023/01/12 11:06:23;;;;;;;3.90;2.40;;;11.80;99.40;;;;;;10476237;28;20212;-82
2023/01/12 11:11:30;;;;;;;5.97;2.73;;;11.80;99.90;;;;;;10469193;28;20205;-82
2023/01/12 11:16:34;;;;;;;3.93;2.27;;;11.80;99.00;;;;;;10468696;28;20517;-80
2023/01/12 11:21:39;;;;;;;5.20;2.10;;;11.90;99.00;;;;;;10497912;28;20224;-80
2023/01/12 11:26:48;;;;;;;3.67;2.00;;;11.90;99.10;;;;;;10482802;28;20254;-83
2023/01/12 11:31:53;;;;;;;4.10;2.20;;;11.90;99.20;;;;;;10485037;28;20198;-80
2023/01/12 11:37:03;;;;;;;3.10;2.40;;;12.00;99.00;;;;;;10482471;28;20457;-80
2023/01/12 11:47:38;;;;;;;2.80;2.30;;;11.90;99.00;;;;;;10486107;28;20232;-81
2023/01/12 11:52:41;;;;;;;1.93;1.83;;;11.90;99.40;;;;;;10503531;28;20604;-81
2023/01/12 11:57:56;;;;;;;2.33;2.13;;;11.90;99.30;;;;;;10492178;28;20259;-81
2023/01/12 12:03:17;;;;;;;2.20;2.10;;;11.90;99.40;;;;;;10491375;28;20215;-81
2023/01/12 12:08:31;;;;;;;3.50;2.30;;;11.80;99.70;;;;;;10485048;28;20315;-81
2023/01/12 12:13:42;;;;;;;2.30;2.10;;;11.70;99.90;;;;;;10476136;28;20285;-81
2023/01/12 12:19:00;;;;;;;2.45;2.08;;;11.60;99.90;;;;;;10490159;28;20224;-81
2023/01/12 12:24:11;;;;;;;2.53;2.00;;;11.80;99.90;;;;;;10488123;28;20219;-82
2023/01/12 12:29:29;;;;;;;3.13;2.93;;;11.80;99.90;;;;;;10488247;28;20308;-82
2023/01/12 12:35:04;;;;;;;3.80;2.30;;;11.80;99.90;;;;;;10491116;28;20573;-82
2023/01/12 12:40:20;;;;;;;3.30;2.10;;;11.70;99.90;;;;;;10502749;28;20260;-82
2023/01/12 12:45:33;;;;;;;2.93;1.60;;;11.70;99.90;;;;;;10520452;28;20302;-82
2023/01/12 12:50:42;;;;;;;3.80;1.57;;;11.80;99.90;;;;;;10531366;28;20224;-82
2023/01/12 12:55:46;;;;;;;2.23;2.13;;;11.80;99.90;;;;;;10513193;28;20594;-82
2023/01/12 13:00:51;;;;;;;3.37;2.43;;;11.80;99.90;;;;;;10512061;28;20872;-82
2023/01/12 13:06:11;;;;;;;2.67;2.47;;;11.80;99.90;;;;;;10509036;28;20225;-82
2023/01/12 13:11:13;;;;;;;2.07;1.90;;;11.70;99.90;;;;;;10491742;28;20471;-82
2023/01/12 13:16:50;;;;;;;2.90;1.90;;;11.80;99.90;;;;;;10484269;28;20276;-82
2023/01/12 13:21:56;;;;;;;2.10;1.60;;;11.90;99.90;;;;;;10490607;28;20596;-82
2023/01/12 13:27:00;;;;;;;2.87;1.80;;;11.90;99.90;;;;;;10490660;28;20252;-82
2023/01/12 13:32:36;;;;;;;2.30;2.10;;;11.90;99.90;;;;;;10494815;28;20266;-82
2023/01/12 13:37:51;;;;;;;2.60;2.07;;;11.90;99.90;;;;;;10498630;28;20221;-82
2023/01/12 13:43:15;;;;;;;3.80;2.07;;;11.90;99.90;;;;;;10506400;28;20207;-82
2023/01/12 13:48:19;;;;;;;2.00;1.90;;;11.80;99.90;;;;;;10531404;22;20301;-85
2023/01/12 13:53:25;;;;;;;2.03;1.87;;;11.90;99.90;;;;;;10484027;28;20192;-84
2023/01/12 13:58:29;;;;;;;2.40;2.20;;;11.90;99.90;;;;;;10507892;28;20216;-83
2023/01/12 14:03:47;;;;;;;2.23;2.03;;;11.80;99.90;;;;;;10467368;28;20281;-83
2023/01/12 14:09:02;;;;;;;2.83;1.97;;;11.80;99.90;;;;;;10482936;28;20283;-83
2023/01/12 14:19:40;;;;;;;2.27;2.10;;;12.00;99.90;;;;;;10473411;28;20226;-84
2023/01/12 14:24:43;;;;;;;3.10;2.20;;;12.10;99.90;;;;;;10496102;28;20254;-84
2023/01/12 14:29:45;;;;;;;2.30;2.00;;;12.10;99.90;;;;;;10496949;28;20227;-83
2023/01/12 14:34:51;;;;;;;2.17;1.70;;;12.00;99.90;;;;;;10471965;28;20242;-84
2023/01/12 14:39:55;;;;;;;3.30;2.20;;;11.80;99.90;;;;;;10481929;28;20250;-85
2023/01/12 14:50:21;;;;;;;2.17;1.97;;;11.70;99.90;;;;;;10468408;28;20231;-83
2023/01/12 14:55:37;;;;;;;2.33;2.13;;;11.70;99.90;;;;;;10504054;28;20203;-83
2023/01/12 15:00:43;;;;;;;2.47;2.30;;;11.70;99.90;;;;;;10480596;28;20319;-83
2023/01/12 15:05:50;;;;;;;1.67;1.57;;;11.60;99.90;;;;;;10503542;28;20250;-83
2023/01/12 15:10:58;;;;;;;2.30;2.10;;;11.60;99.90;;;;;;10499658;28;20294;-83
2023/01/12 15:26:44;;;;;;;2.87;2.10;;;11.50;99.90;;;;;;10482677;28;20927;-83
2023/01/12 15:31:46;;;;;;;2.53;2.30;;;11.50;99.90;;;;;;10500108;28;20293;-84
2023/01/12 15:36:48;;;;;;;3.90;2.60;;;11.50;99.90;;;;;;10505838;28;20316;-84
2023/01/12 15:47:13;;;;;;;2.70;2.53;;;11.70;99.90;;;;;;10491914;28;20748;-84
2023/01/12 15:52:18;;;;;;;3.37;2.47;;;11.70;99.90;;;;;;10466019;28;20258;-84
2023/01/12 15:57:22;;;;;;;2.60;2.40;;;11.80;99.90;;;;;;10469545;28;20238;-83
2023/01/12 16:02:29;;;;;;;2.50;2.00;;;11.60;99.90;;;;;;10491519;28;20246;-83
2023/01/12 16:07:31;;;;;;;2.93;2.70;;;11.60;99.90;;;;;;10513291;28;20227;-84
2023/01/12 16:12:35;;;;;;;2.43;2.30;;;11.50;99.90;;;;;;10506460;28;20196;-84
2023/01/12 16:17:37;;;;;;;1.97;1.87;;;11.50;99.90;;;;;;10475148;28;20297;-84
2023/01/12 16:22:39;;;;;;;3.73;2.97;;;11.40;99.90;;;;;;10503577;28;20298;-84
2023/01/12 16:27:43;;;;;;;2.67;2.47;;;11.40;99.90;;;;;;10503529;28;20251;-85
2023/01/12 16:32:45;;;;;;;2.33;2.03;;;11.30;99.90;;;;;;10486255;28;20242;-84
2023/01/12 16:37:53;;;;;;;3.60;2.60;;;11.40;99.90;;;;;;10498561;28;20220;-84
2023/01/12 16:42:57;;;;;;;2.00;1.90;;;11.40;99.90;;;;;;10474637;28;20213;-83
2023/01/12 16:47:59;;;;;;;3.17;2.10;;;11.30;99.90;;;;;;10476565;28;20298;-82
2023/01/12 16:53:02;;;;;;;9.13;4.73;;;11.30;99.90;;;;;;10472677;28;20283;-83
2023/01/12 16:58:06;;;;;;;3.03;2.80;;;11.30;99.90;;;;;;10480580;28;20280;-83
2023/01/12 17:03:08;;;;;;;3.33;1.97;;;11.30;99.90;;;;;;10469252;28;20228;-84
2023/01/12 17:08:10;;;;;;;2.83;2.50;;;11.30;99.90;;;;;;10485276;28;20224;-83
2023/01/12 17:13:13;;;;;;;2.93;2.00;;;11.30;99.90;;;;;;10512264;28;20239;-83
2023/01/12 17:18:15;;;;;;;2.30;2.10;;;11.30;99.90;;;;;;10485100;28;20379;-83
2023/01/12 17:23:17;;;;;;;4.60;2.20;;;11.40;99.90;;;;;;10473291;28;20231;-84
2023/01/12 17:28:21;;;;;;;4.80;1.87;;;11.30;99.90;;;;;;10498509;28;20731;-84
2023/01/12 17:33:23;;;;;;;3.70;1.90;;;11.30;99.90;;;;;;10499133;28;20226;-84
2023/01/12 17:38:25;;;;;;;3.27;2.30;;;11.40;99.90;;;;;;10495753;28;20668;-83
2023/01/12 17:43:29;;;;;;;2.10;1.90;;;11.50;99.90;;;;;;10500650;28;20747;-83
2023/01/12 17:48:31;;;;;;;3.33;1.40;;;11.50;99.90;;;;;;10486853;28;21037;-84
2023/01/12 17:53:33;;;;;;;2.77;2.30;;;11.40;99.90;;;;;;10465930;28;20288;-83
2023/01/12 17:58:36;;;;;;;2.53;2.33;;;11.30;99.90;;;;;;10478155;28;20236;-84
2023/01/12 18:03:38;;;;;;;2.05;1.95;;;11.40;99.90;;;;;;10454902;28;20708;-84
2023/01/12 18:08:40;;;;;;;3.00;1.93;;;11.50;99.90;;;;;;10496135;28;20274;-81
2023/01/12 18:13:45;;;;;;;2.40;2.20;;;11.50;99.90;;;;;;10479888;28;20288;-84
2023/01/12 18:18:47;;;;;;;2.90;2.40;;;11.50;99.90;;;;;;10497161;28;20391;-84
2023/01/12 18:23:50;;;;;;;2.30;2.10;;;11.40;99.90;;;;;;10502559;28;20220;-83
2023/01/12 18:28:55;;;;;;;2.60;2.10;;;11.40;99.90;;;;;;10481888;28;20334;-85
2023/01/12 18:34:02;;;;;;;2.67;2.37;;;11.60;99.90;;;;;;10481822;28;20204;-85
2023/01/12 18:39:06;;;;;;;2.30;2.10;;;11.60;99.90;;;;;;10464803;28;20759;-84
2023/01/12 18:44:09;;;;;;;1.97;1.87;;;11.60;99.90;;;;;;10470130;28;20224;-83
2023/01/12 18:49:11;;;;;;;2.10;2.00;;;11.60;99.70;;;;;;10521075;28;20233;-83
2023/01/12 18:54:14;;;;;;;2.90;2.20;;;11.60;99.80;;;;;;10521899;28;21187;-83
2023/01/12 18:59:17;;;;;;;2.50;2.30;;;11.60;99.90;;;;;;10481685;28;20220;-83
2023/01/12 19:04:29;;;;;;;1.97;1.70;;;11.50;99.80;;;;;;10485864;28;20295;-83
2023/01/12 19:09:34;;;;;;;3.17;2.25;;;11.60;99.90;;;;;;10508530;28;20222;-83
2023/01/12 19:19:59;;;;;;;3.27;2.40;;;11.80;99.90;;;;;;10485379;28;20220;-83
2023/01/12 19:30:22;;;;;;;2.45;2.20;;;11.70;99.90;;;;;;10501438;28;20219;-83
2023/01/12 19:35:24;;;;;;;2.30;2.10;;;11.90;99.20;;;;;;10499392;28;20750;-84
2023/01/12 19:40:32;;;;;;;2.10;1.90;;;11.90;99.30;;;;;;10501102;28;20239;-81
2023/01/12 19:45:38;;;;;;;2.07;1.87;;;11.90;99.50;;;;;;10471758;28;20224;-82
2023/01/12 19:50:42;;;;;;;3.93;2.67;;;11.90;99.20;;;;;;10557646;22;20232;-79
2023/01/12 19:55:46;;;;;;;2.38;2.00;;;11.80;99.70;;;;;;10539156;28;20203;-80
2023/01/12 20:00:50;;;;;;;2.00;1.70;;;11.90;99.00;;;;;;10536116;28;20223;-81
2023/01/12 20:05:52;;;;;;;3.33;2.30;;;11.90;98.90;;;;;;10532790;28;20219;-80
2023/01/12 20:10:56;;;;;;;2.93;2.77;;;11.80;99.10;;;;;;10537681;28;20203;-80
2023/01/12 20:16:04;;;;;;;2.57;2.37;;;11.80;99.30;;;;;;10545614;28;20232;-80
2023/01/12 20:21:10;;;;;;;2.73;1.80;;;11.80;99.20;;;;;;10522195;28;20216;-80
2023/01/12 20:26:13;;;;;;;2.33;2.00;;;11.80;99.40;;;;;;10537325;28;20728;-81
2023/01/12 20:31:19;;;;;;;2.37;2.00;;;11.80;99.10;;;;;;10521698;28;20192;-80
2023/01/12 20:36:21;;;;;;;2.93;2.00;;;11.80;99.00;;;;;;10512850;28;20223;-80
2023/01/12 20:41:23;;;;;;;3.80;2.10;;;11.80;99.00;;;;;;10532251;28;20290;-81
2023/01/12 20:46:26;;;;;;;2.45;2.33;;;11.90;99.40;;;;;;10537437;28;20680;-80
2023/01/12 20:51:31;;;;;;;2.67;2.10;;;12.00;98.60;;;;;;10538333;28;20204;-80
2023/01/12 20:56:33;;;;;;;2.00;1.90;;;12.00;98.50;;;;;;10535142;28;20221;-81
2023/01/12 21:01:37;;;;;;;2.13;1.83;;;11.90;98.70;;;;;;10535046;28;20582;-81
2023/01/12 21:06:42;;;;;;;3.43;2.03;;;11.80;99.10;;;;;;10555181;27;20251;-80
2023/01/12 21:11:45;;;;;;;2.97;2.03;;;11.70;99.10;;;;;;10538383;28;20719;-80
2023/01/12 21:16:49;;;;;;;2.70;1.87;;;11.60;99.30;;;;;;10522243;28;20220;-81
2023/01/12 21:21:51;;;;;;;4.27;2.10;;;11.60;99.30;;;;;;10540747;28;20193;-80
2023/01/12 21:26:54;;;;;;;1.83;1.73;;;11.60;99.40;;;;;;10543219;28;20227;-80
2023/01/12 21:31:57;;;;;;;6.43;2.43;;;11.60;99.10;;;;;;10525462;28;20213;-80
2023/01/12 21:36:59;;;;;;;3.50;2.33;;;11.60;99.40;;;;;;10535134;28;20284;-79
2023/01/12 21:47:23;;;;;;;3.80;2.30;;;11.80;99.30;;;;;;10521616;28;20817;-80
2023/01/12 21:52:30;;;;;;;2.50;2.30;;;11.70;99.20;;;;;;10513180;28;20201;-82
2023/01/12 21:57:32;;;;;;;2.63;1.70;;;11.70;99.10;;;;;;10537463;28;20208;-81
2023/01/12 22:02:35;;;;;;;2.50;2.30;;;11.60;99.40;;;;;;10515438;28;20692;-82
2023/01/12 22:07:39;;;;;;;2.00;1.90;;;11.60;99.90;;;;;;10532046;28;20694;-81
2023/01/12 22:12:41;;;;;;;3.03;2.38;;;11.60;99.50;;;;;;10513836;28;20578;-82
2023/01/12 22:17:45;;;;;;;6.63;2.60;;;11.70;99.20;;;;;;10530082;28;20695;-81
2023/01/12 22:22:47;;;;;;;2.83;2.37;;;11.70;99.40;;;;;;10537771;28;20209;-81
2023/01/12 22:27:49;;;;;;;4.20;2.47;;;11.70;99.80;;;;;;10540053;28;20231;-81
2023/01/12 22:32:55;;;;;;;2.80;2.47;;;11.60;99.20;;;;;;10537576;28;20200;-81
2023/01/12 22:37:57;;;;;;;4.90;2.50;;;11.70;99.60;;;;;;10540399;28;20601;-82
2023/01/12 22:48:20;;;;;;;3.90;2.80;;;11.70;99.40;;;;;;10536728;28;20229;-82
2023/01/12 22:53:23;;;;;;;3.30;2.13;;;11.70;99.00;;;;;;10539746;28;20212;-82
2023/01/12 22:58:26;;;;;;;3.00;2.10;;;11.70;99.10;;;;;;10536309;28;20695;-81
2023/01/12 23:03:32;;;;;;;2.53;2.00;;;11.70;99.20;;;;;;10532317;28;20211;-81
2023/01/12 23:08:37;;;;;;;2.23;2.13;;;11.70;99.30;;;;;;10548261;28;20223;-81
2023/01/12 23:13:40;;;;;;;2.03;1.93;;;11.60;99.30;;;;;;10548308;28;20267;-81
2023/01/12 23:18:48;;;;;;;2.40;2.03;;;11.70;99.50;;;;;;10546569;28;20710;-81
2023/01/12 23:23:53;;;;;;;3.00;2.10;;;11.70;99.50;;;;;;10541465;28;20214;-81
2023/01/12 23:28:58;;;;;;;2.40;2.07;;;11.60;99.60;;;;;;10547802;28;20228;-81
2023/01/12 23:34:01;;;;;;;7.63;5.53;;;11.70;99.50;;;;;;10547550;28;20283;-81
2023/01/12 23:39:06;;;;;;;4.83;4.43;;;11.70;99.50;;;;;;10535623;28;20238;-82
2023/01/12 23:44:10;;;;;;;4.10;2.47;;;11.70;99.50;;;;;;10521866;28;20239;-81
2023/01/12 23:49:13;;;;;;;2.30;1.97;;;11.70;99.80;;;;;;10540084;28;20236;-81
2023/01/12 23:54:19;;;;;;;2.50;2.20;;;11.70;99.90;;;;;;10561883;27;20192;-81
2023/01/12 23:59:22;;;;;;;2.27;2.07;;;11.70;99.80;;;;;;10557692;27;20249;-81
